Time;durP1;ratioP1;P1;durP2;ratioP2;P2;SDS_P1;SDS_P2;PMS_P1;PMS_P2;Temp;Humidity;BMP_temperature;BMP_pressure;BME280_temperature;BME280_humidity;BME280_pressure;Samples;Min_cycle;Max_cycle;Signal;HPM_P1;HPM_P2
2023/06/01 00:01:58;;;;;;;8.43;3.67;;;;;;;;;;5093981;28;20032;-62
2023/06/01 00:04:23;;;;;;;5.10;3.28;;;;;;;;;;5093793;28;20454;-60
2023/06/01 00:06:49;;;;;;;9.15;3.42;;;;;;;;;;5094222;28;20024;-59
2023/06/01 00:09:15;;;;;;;10.82;3.80;;;;;;;;;;5093894;28;20136;-59
2023/06/01 00:11:40;;;;;;;9.65;3.83;;;;;;;;;;5093569;28;20032;-60
2023/06/01 00:14:06;;;;;;;6.65;3.38;;;;;;;;;;5093638;28;20387;-63
2023/06/01 00:16:31;;;;;;;9.38;3.40;;;;;;;;;;5093593;28;20016;-63
2023/06/01 00:19:00;;;;;;;4.47;3.05;;;;;;;;;;5093434;28;20646;-63
2023/06/01 00:21:26;;;;;;;6.97;3.20;;;;;;;;;;5093331;28;20077;-63
2023/06/01 00:23:52;;;;;;;6.38;3.40;;;;;;;;;;5093377;28;20107;-62
2023/06/01 00:26:17;;;;;;;9.95;3.38;;;;;;;;;;5091821;28;20122;-62
2023/06/01 00:28:43;;;;;;;5.03;3.30;;;;;;;;;;5093323;28;20032;-61
2023/06/01 00:31:08;;;;;;;5.72;3.28;;;;;;;;;;5093254;28;20530;-59
2023/06/01 00:33:34;;;;;;;6.00;3.40;;;;;;;;;;5093491;28;20130;-62
2023/06/01 00:35:59;;;;;;;5.38;3.35;;;;;;;;;;5093194;28;20498;-62
2023/06/01 00:38:25;;;;;;;5.57;3.38;;;;;;;;;;5092966;28;20048;-63
2023/06/01 00:40:51;;;;;;;5.53;3.10;;;;;;;;;;5093156;28;20079;-61
2023/06/01 00:43:19;;;;;;;6.85;3.00;;;;;;;;;;5092954;28;20097;-61
2023/06/01 00:45:45;;;;;;;5.50;3.47;;;;;;;;;;5093087;28;20047;-62
2023/06/01 00:48:12;;;;;;;7.30;3.15;;;;;;;;;;5093287;28;20055;-59
2023/06/01 00:50:38;;;;;;;4.35;3.03;;;;;;;;;;5092949;28;20097;-63
2023/06/01 00:53:08;;;;;;;5.15;3.30;;;;;;;;;;5093155;28;20028;-59
2023/06/01 00:55:34;;;;;;;9.23;3.20;;;;;;;;;;5093173;28;20027;-63
2023/06/01 00:58:01;;;;;;;7.65;3.50;;;;;;;;;;5092762;28;20551;-59
2023/06/01 01:00:28;;;;;;;6.22;3.13;;;;;;;;;;5093077;28;20039;-60
2023/06/01 01:02:56;;;;;;;3.95;3.10;;;;;;;;;;5092964;28;20083;-59
2023/06/01 01:05:26;;;;;;;6.05;3.20;;;;;;;;;;5092756;28;20482;-59
2023/06/01 01:07:51;;;;;;;7.50;3.10;;;;;;;;;;5089967;28;20031;-60
2023/06/01 01:10:26;;;;;;;5.40;3.67;;;;;;;;;;5089776;28;20027;-64
2023/06/01 01:13:21;;;;;;;6.88;3.20;;;;;;;;;;5090960;28;20534;-61
2023/06/01 01:16:24;;;;;;;6.47;3.47;;;;;;;;;;5090326;28;20051;-61
2023/06/01 01:19:07;;;;;;;5.68;3.15;;;;;;;;;;5090825;28;20035;-63
2023/06/01 01:21:37;;;;;;;5.57;3.00;;;;;;;;;;5091266;28;20024;-59
2023/06/01 01:24:11;;;;;;;3.97;3.00;;;;;;;;;;5091392;28;20542;-62
2023/06/01 01:26:55;;;;;;;6.30;3.80;;;;;;;;;;5090217;28;20051;-63
2023/06/01 01:29:23;;;;;;;5.50;3.70;;;;;;;;;;5091112;28;20028;-63
2023/06/01 01:31:50;;;;;;;4.97;3.00;;;;;;;;;;5089960;28;20074;-62
2023/06/01 01:34:19;;;;;;;7.22;3.47;;;;;;;;;;5091327;28;20495;-63
2023/06/01 01:36:45;;;;;;;5.40;3.08;;;;;;;;;;5091470;28;20106;-63
2023/06/01 01:39:10;;;;;;;7.85;3.63;;;;;;;;;;5094926;28;20626;-63
2023/06/01 01:41:36;;;;;;;6.55;3.33;;;;;;;;;;5095168;28;20023;-61
2023/06/01 01:44:03;;;;;;;7.95;3.00;;;;;;;;;;5095150;28;20044;-60
2023/06/01 01:46:36;;;;;;;4.28;2.97;;;;;;;;;;5095953;28;20055;-60
2023/06/01 01:49:09;;;;;;;4.30;2.90;;;;;;;;;;5096046;28;20024;-59
2023/06/01 01:51:59;;;;;;;4.10;3.00;;;;;;;;;;5095842;28;20021;-62
2023/06/01 01:54:26;;;;;;;5.05;3.00;;;;;;;;;;5095872;28;20024;-63
2023/06/01 01:56:56;;;;;;;6.10;3.20;;;;;;;;;;5096026;28;20039;-60
2023/06/01 01:59:21;;;;;;;;;;;;;;;;;;5096533;28;20028;-62
2023/06/01 02:01:47;;;;;;;4.15;3.20;;;;;;;;;;5096263;28;19919;-62
2023/06/01 02:04:12;;;;;;;4.30;2.80;;;;;;;;;;5094535;28;20047;-63
2023/06/01 02:06:38;;;;;;;6.10;3.00;;;;;;;;;;5095295;28;20020;-62
2023/06/01 02:09:07;;;;;;;6.63;3.20;;;;;;;;;;5096107;28;20107;-62
2023/06/01 02:11:33;;;;;;;4.30;3.13;;;;;;;;;;5095924;28;20066;-62
2023/06/01 02:13:59;;;;;;;4.97;3.03;;;;;;;;;;5096180;28;20387;-59
2023/06/01 02:16:25;;;;;;;5.60;3.00;;;;;;;;;;5095847;28;20032;-59
2023/06/01 02:18:51;;;;;;;6.10;3.40;;;;;;;;;;5095887;28;20028;-59
2023/06/01 02:21:17;;;;;;;8.05;3.25;;;;;;;;;;5095966;28;20399;-59
2023/06/01 02:23:43;;;;;;;5.40;3.20;;;;;;;;;;5095805;28;20024;-59
2023/06/01 02:26:09;;;;;;;5.00;3.08;;;;;;;;;;5095922;28;20070;-59
2023/06/01 02:28:38;;;;;;;5.25;3.30;;;;;;;;;;5095963;28;20413;-59
2023/06/01 02:31:04;;;;;;;5.85;3.05;;;;;;;;;;5095647;28;20016;-59
2023/06/01 02:33:30;;;;;;;4.13;3.05;;;;;;;;;;5095604;28;20074;-59
2023/06/01 02:35:55;;;;;;;3.92;3.00;;;;;;;;;;5095450;28;20020;-59
2023/06/01 02:38:21;;;;;;;3.25;2.88;;;;;;;;;;5095538;28;20040;-60
2023/06/01 02:40:46;;;;;;;9.13;3.03;;;;;;;;;;5095645;28;20020;-59
2023/06/01 02:43:12;;;;;;;4.30;3.05;;;;;;;;;;5095294;28;20093;-62
2023/06/01 02:45:38;;;;;;;3.47;2.80;;;;;;;;;;5095182;28;20039;-63
2023/06/01 02:48:04;;;;;;;5.72;3.30;;;;;;;;;;5089617;28;20027;-60
2023/06/01 02:50:29;;;;;;;4.80;3.05;;;;;;;;;;5090496;28;20379;-59
2023/06/01 02:52:55;;;;;;;6.03;3.03;;;;;;;;;;5090744;28;20039;-59
2023/06/01 02:55:20;;;;;;;5.50;2.97;;;;;;;;;;5092401;28;20036;-63
2023/06/01 02:57:46;;;;;;;5.88;3.15;;;;;;;;;;5091787;28;20487;-63
2023/06/01 03:00:18;;;;;;;3.72;2.83;;;;;;;;;;5094088;28;20023;-59
2023/06/01 03:02:45;;;;;;;3.90;2.90;;;;;;;;;;5092854;28;20054;-60
2023/06/01 03:05:14;;;;;;;3.67;3.10;;;;;;;;;;5093693;28;20501;-62
2023/06/01 03:07:46;;;;;;;4.97;2.97;;;;;;;;;;5093283;28;20039;-62
2023/06/01 03:10:12;;;;;;;3.55;3.00;;;;;;;;;;5095128;28;20036;-59
2023/06/01 03:12:38;;;;;;;4.43;3.08;;;;;;;;;;5094482;28;20052;-60
2023/06/01 03:15:04;;;;;;;4.47;3.25;;;;;;;;;;5093632;28;20024;-63
2023/06/01 03:17:31;;;;;;;5.10;2.95;;;;;;;;;;5094894;28;20388;-63
2023/06/01 03:19:57;;;;;;;3.83;3.17;;;;;;;;;;5095020;28;20024;-62
2023/06/01 03:22:23;;;;;;;5.30;3.35;;;;;;;;;;5094587;28;20032;-61
2023/06/01 03:24:49;;;;;;;4.18;3.40;;;;;;;;;;5091698;28;20028;-63
2023/06/01 03:27:19;;;;;;;5.72;3.42;;;;;;;;;;5093289;28;20020;-63
2023/06/01 03:29:46;;;;;;;5.93;3.15;;;;;;;;;;5093587;28;20035;-59
2023/06/01 03:32:11;;;;;;;6.50;3.15;;;;;;;;;;5093234;28;20032;-58
2023/06/01 03:34:38;;;;;;;5.65;3.13;;;;;;;;;;5093159;28;20027;-64
2023/06/01 03:37:04;;;;;;;3.85;3.10;;;;;;;;;;5092327;28;20036;-64
2023/06/01 03:39:33;;;;;;;4.55;3.00;;;;;;;;;;5093055;28;20101;-64
2023/06/01 03:41:59;;;;;;;5.28;3.20;;;;;;;;;;5091624;28;20024;-65
2023/06/01 03:44:25;;;;;;;5.00;2.95;;;;;;;;;;5093306;28;20016;-59
2023/06/01 03:46:51;;;;;;;5.03;3.20;;;;;;;;;;5092550;28;20069;-64
2023/06/01 03:49:16;;;;;;;3.53;2.90;;;;;;;;;;5092555;28;20103;-62
2023/06/01 03:51:42;;;;;;;3.58;2.95;;;;;;;;;;5089079;28;20012;-59
2023/06/01 03:54:08;;;;;;;4.90;2.97;;;;;;;;;;5089489;28;20460;-64
2023/06/01 03:56:35;;;;;;;3.78;3.40;;;;;;;;;;5086974;28;20036;-60
2023/06/01 03:59:00;;;;;;;3.60;2.80;;;;;;;;;;5090833;28;20016;-59
2023/06/01 04:01:28;;;;;;;5.13;2.97;;;;;;;;;;5091923;28;20027;-60
2023/06/01 04:03:55;;;;;;;5.10;3.03;;;;;;;;;;5092910;28;20409;-60
2023/06/01 04:06:21;;;;;;;4.95;3.10;;;;;;;;;;5090310;28;20035;-60
2023/06/01 04:08:55;;;;;;;3.15;2.72;;;;;;;;;;5091708;28;20028;-60
2023/06/01 04:11:21;;;;;;;5.30;3.00;;;;;;;;;;5093699;28;20023;-60
2023/06/01 04:13:47;;;;;;;4.10;2.92;;;;;;;;;;5093898;28;20357;-60
2023/06/01 04:16:13;;;;;;;3.75;3.10;;;;;;;;;;5093801;28;20078;-60
2023/06/01 04:18:39;;;;;;;5.03;3.03;;;;;;;;;;5093296;28;20648;-59
2023/06/01 04:21:06;;;;;;;4.50;3.08;;;;;;;;;;5093267;28;20024;-66
2023/06/01 04:23:33;;;;;;;5.93;3.08;;;;;;;;;;5089675;28;20054;-59
2023/06/01 04:25:59;;;;;;;4.95;3.15;;;;;;;;;;5092200;28;20031;-60
2023/06/01 04:28:29;;;;;;;3.15;2.67;;;;;;;;;;5091868;28;20024;-59
2023/06/01 04:30:55;;;;;;;;;;;;;;;;;;5088732;28;20032;-60
2023/06/01 04:33:24;;;;;;;2.85;2.50;;;;;;;;;;5089433;28;19916;-60
2023/06/01 04:35:52;;;;;;;4.75;2.90;;;;;;;;;;5084511;28;20418;-59
2023/06/01 04:38:19;;;;;;;4.18;2.90;;;;;;;;;;5073898;28;20040;-65
2023/06/01 04:40:45;;;;;;;3.85;2.75;;;;;;;;;;5072793;28;20040;-60
2023/06/01 04:43:11;;;;;;;5.43;2.75;;;;;;;;;;5072001;28;20095;-60
2023/06/01 04:45:38;;;;;;;3.42;3.03;;;;;;;;;;5072222;28;20069;-65
2023/06/01 04:48:08;;;;;;;3.33;3.00;;;;;;;;;;5073075;28;20021;-60
2023/06/01 04:50:37;;;;;;;5.82;3.00;;;;;;;;;;5071867;28;20101;-60
2023/06/01 04:53:03;;;;;;;4.03;3.00;;;;;;;;;;5072592;28;20476;-64
2023/06/01 04:55:28;;;;;;;3.95;2.92;;;;;;;;;;5087223;28;20024;-60
2023/06/01 04:57:54;;;;;;;5.82;2.53;;;;;;;;;;5091523;28;20032;-59
2023/06/01 05:00:20;;;;;;;4.32;3.03;;;;;;;;;;5091530;28;20038;-57
2023/06/01 05:02:47;;;;;;;4.32;2.75;;;;;;;;;;5090876;28;20042;-61
2023/06/01 05:05:14;;;;;;;4.22;2.83;;;;;;;;;;5090885;28;20435;-60
2023/06/01 05:07:44;;;;;;;6.30;3.22;;;;;;;;;;5091740;28;20096;-58
2023/06/01 05:10:11;;;;;;;3.75;2.78;;;;;;;;;;5092925;28;20425;-59
2023/06/01 05:12:37;;;;;;;3.50;2.83;;;;;;;;;;5089288;28;20028;-59
2023/06/01 05:15:06;;;;;;;3.45;2.88;;;;;;;;;;5090670;28;20028;-59
2023/06/01 05:17:32;;;;;;;3.45;2.85;;;;;;;;;;5090521;28;20494;-63
2023/06/01 05:19:57;;;;;;;3.53;3.05;;;;;;;;;;5091176;28;20020;-58
2023/06/01 05:22:23;;;;;;;3.80;2.70;;;;;;;;;;5091376;28;20028;-62
2023/06/01 05:24:49;;;;;;;4.70;2.85;;;;;;;;;;5090247;28;20020;-59
2023/06/01 05:27:16;;;;;;;6.05;2.72;;;;;;;;;;5090313;28;20468;-59
2023/06/01 05:29:41;;;;;;;3.42;2.65;;;;;;;;;;5091605;28;20032;-59
2023/06/01 05:32:08;;;;;;;4.75;2.80;;;;;;;;;;5091243;28;20405;-59
2023/06/01 05:34:33;;;;;;;5.05;3.08;;;;;;;;;;5091528;28;20035;-58
2023/06/01 05:36:59;;;;;;;3.00;2.70;;;;;;;;;;5086334;28;20387;-59
2023/06/01 05:39:27;;;;;;;4.03;2.80;;;;;;;;;;5088643;28;20399;-59
2023/06/01 05:41:57;;;;;;;5.95;3.03;;;;;;;;;;5092586;28;20387;-58
2023/06/01 05:44:26;;;;;;;4.32;2.97;;;;;;;;;;5092218;28;20746;-58
2023/06/01 05:46:52;;;;;;;4.93;2.65;;;;;;;;;;5092301;28;20044;-59
2023/06/01 05:49:18;;;;;;;5.97;3.03;;;;;;;;;;5092272;28;20128;-65
2023/06/01 05:51:46;;;;;;;3.33;2.97;;;;;;;;;;5092122;28;20468;-59
2023/06/01 05:54:11;;;;;;;3.22;2.70;;;;;;;;;;5092390;28;20038;-60
2023/06/01 05:56:37;;;;;;;6.53;3.25;;;;;;;;;;5092141;28;20028;-59
2023/06/01 05:59:03;;;;;;;5.65;3.90;;;;;;;;;;5092086;28;20072;-59
2023/06/01 06:01:29;;;;;;;2.85;2.55;;;;;;;;;;5092377;28;20528;-60
2023/06/01 06:03:55;;;;;;;3.05;2.58;;;;;;;;;;5092370;28;20054;-63
2023/06/01 06:06:22;;;;;;;4.55;3.00;;;;;;;;;;5092332;28;20754;-63
2023/06/01 06:08:48;;;;;;;3.13;2.72;;;;;;;;;;5090339;28;20020;-62
2023/06/01 06:11:14;;;;;;;5.60;2.70;;;;;;;;;;5091195;28;20097;-59
2023/06/01 06:13:39;;;;;;;4.20;2.88;;;;;;;;;;5090933;28;20146;-59
2023/06/01 06:16:05;;;;;;;4.88;3.05;;;;;;;;;;5091932;28;20460;-64
2023/06/01 06:18:31;;;;;;;3.38;2.78;;;;;;;;;;5091949;28;20032;-62
2023/06/01 06:20:56;;;;;;;4.28;2.90;;;;;;;;;;5092006;28;20016;-63
2023/06/01 06:23:22;;;;;;;3.17;2.88;;;;;;;;;;5090772;28;20040;-61
2023/06/01 06:25:48;;;;;;;4.03;2.83;;;;;;;;;;5094204;28;20032;-63
2023/06/01 06:28:14;;;;;;;5.85;2.72;;;;;;;;;;5092246;28;20031;-61
2023/06/01 06:30:40;;;;;;;5.20;3.28;;;;;;;;;;5093765;28;20031;-59
2023/06/01 06:33:06;;;;;;;5.00;2.92;;;;;;;;;;5094176;28;20035;-60
2023/06/01 06:35:31;;;;;;;3.08;2.70;;;;;;;;;;5093868;28;20019;-60
2023/06/01 06:37:57;;;;;;;3.65;2.60;;;;;;;;;;5092473;28;20032;-61
2023/06/01 06:40:22;;;;;;;4.80;2.60;;;;;;;;;;5093832;28;20024;-58
2023/06/01 06:42:50;;;;;;;6.43;2.83;;;;;;;;;;5093618;28;20055;-60
2023/06/01 06:45:16;;;;;;;6.65;3.22;;;;;;;;;;5090737;28;20038;-62
2023/06/01 06:47:41;;;;;;;6.22;2.63;;;;;;;;;;5086460;28;20028;-61
2023/06/01 06:50:07;;;;;;;3.92;3.13;;;;;;;;;;5109175;28;20654;-60
2023/06/01 06:52:33;;;;;;;6.95;2.95;;;;;;;;;;5092128;28;20115;-59
2023/06/01 06:54:58;;;;;;;3.83;2.72;;;;;;;;;;5091137;28;20111;-59
2023/06/01 06:57:24;;;;;;;4.75;2.78;;;;;;;;;;5093215;28;20052;-59
2023/06/01 06:59:50;;;;;;;5.45;2.70;;;;;;;;;;5093585;28;20095;-63
2023/06/01 07:02:16;;;;;;;4.90;2.63;;;;;;;;;;5093497;28;20143;-63
2023/06/01 07:04:41;;;;;;;2.78;2.58;;;;;;;;;;5093681;28;20103;-62
2023/06/01 07:07:07;;;;;;;2.60;2.40;;;;;;;;;;5108913;28;20050;-63
2023/06/01 07:09:33;;;;;;;3.97;2.72;;;;;;;;;;5093328;28;20078;-62
2023/06/01 07:11:58;;;;;;;2.63;2.42;;;;;;;;;;5088640;28;20024;-59
2023/06/01 07:14:24;;;;;;;5.18;2.63;;;;;;;;;;5093214;28;20028;-60
2023/06/01 07:16:50;;;;;;;5.72;2.97;;;;;;;;;;5075027;28;20040;-59
2023/06/01 07:19:16;;;;;;;4.53;3.10;;;;;;;;;;5108750;28;20024;-62
2023/06/01 07:21:42;;;;;;;3.50;3.03;;;;;;;;;;5093069;28;20077;-62
2023/06/01 07:24:08;;;;;;;2.83;2.30;;;;;;;;;;5092811;28;20031;-61
2023/06/01 07:26:33;;;;;;;3.67;2.90;;;;;;;;;;5092968;28;20035;-60
2023/06/01 07:28:59;;;;;;;3.72;2.75;;;;;;;;;;5092717;28;20126;-63
2023/06/01 07:31:27;;;;;;;3.72;2.60;;;;;;;;;;5091545;28;20038;-63
2023/06/01 07:33:55;;;;;;;2.67;2.47;;;;;;;;;;5092456;28;20042;-60
2023/06/01 07:36:23;;;;;;;2.70;2.50;;;;;;;;;;5091609;28;20036;-60
2023/06/01 07:38:51;;;;;;;5.80;2.72;;;;;;;;;;5092471;28;20075;-62
2023/06/01 07:41:17;;;;;;;3.15;2.65;;;;;;;;;;5092754;28;20411;-63
2023/06/01 07:43:43;;;;;;;4.72;2.83;;;;;;;;;;5092427;28;20020;-63
2023/06/01 07:46:08;;;;;;;4.07;2.75;;;;;;;;;;5092525;28;20024;-60
2023/06/01 07:48:37;;;;;;;4.57;2.72;;;;;;;;;;5092507;28;20077;-61
2023/06/01 07:51:03;;;;;;;4.32;2.97;;;;;;;;;;5092419;28;20024;-59
2023/06/01 07:53:29;;;;;;;3.25;2.80;;;;;;;;;;5092664;28;20042;-61
2023/06/01 07:55:55;;;;;;;5.53;2.70;;;;;;;;;;5090916;28;20540;-60
2023/06/01 07:58:20;;;;;;;3.75;2.45;;;;;;;;;;5092657;28;20035;-60
2023/06/01 08:00:46;;;;;;;8.10;2.60;;;;;;;;;;5088270;28;20135;-60
2023/06/01 08:03:12;;;;;;;3.47;2.30;;;;;;;;;;5072093;28;20040;-61
2023/06/01 08:05:41;;;;;;;5.53;2.67;;;;;;;;;;5072285;28;20032;-63
2023/06/01 08:08:07;;;;;;;2.88;2.33;;;;;;;;;;5071969;28;20492;-60
2023/06/01 08:10:33;;;;;;;3.80;2.50;;;;;;;;;;5071876;28;20119;-60
2023/06/01 08:12:58;;;;;;;3.38;2.70;;;;;;;;;;5083628;28;20055;-62
2023/06/01 08:15:26;;;;;;;3.15;2.47;;;;;;;;;;5088300;28;20041;-60
2023/06/01 08:17:52;;;;;;;3.20;2.33;;;;;;;;;;5089220;28;20107;-62
2023/06/01 08:20:21;;;;;;;2.78;2.50;;;;;;;;;;5091031;28;20111;-61
2023/06/01 08:22:48;;;;;;;4.00;2.50;;;;;;;;;;5090735;28;20063;-61
2023/06/01 08:25:14;;;;;;;4.85;2.70;;;;;;;;;;5090292;28;20495;-61
2023/06/01 08:27:40;;;;;;;2.65;2.20;;;;;;;;;;5090688;28;20051;-63
2023/06/01 08:30:07;;;;;;;3.20;2.40;;;;;;;;;;5091748;28;20050;-62
2023/06/01 08:32:32;;;;;;;4.00;2.85;;;;;;;;;;5091658;28;20479;-61
2023/06/01 08:34:58;;;;;;;8.15;2.42;;;;;;;;;;5091553;28;20205;-61
2023/06/01 08:37:23;;;;;;;3.85;2.60;;;;;;;;;;5090136;28;20039;-63
2023/06/01 08:39:49;;;;;;;4.10;2.58;;;;;;;;;;5091126;28;20068;-60
2023/06/01 08:42:38;;;;;;;2.95;2.40;;;;;;;;;;5090712;28;20028;-61
2023/06/01 08:45:05;;;;;;;3.03;2.35;;;;;;;;;;5071374;28;20024;-62
2023/06/01 08:47:31;;;;;;;3.40;2.58;;;;;;;;;;5071309;28;20415;-62
2023/06/01 08:49:59;;;;;;;3.30;2.63;;;;;;;;;;5071214;28;20021;-60
2023/06/01 08:52:31;;;;;;;3.25;2.47;;;;;;;;;;5086307;28;20028;-59
2023/06/01 08:54:59;;;;;;;3.65;2.60;;;;;;;;;;5071192;28;20492;-60
2023/06/01 08:57:25;;;;;;;2.63;2.40;;;;;;;;;;5070886;28;20032;-62
2023/06/01 08:59:52;;;;;;;3.40;2.50;;;;;;;;;;5071321;28;20032;-62
2023/06/01 09:02:17;;;;;;;3.67;2.60;;;;;;;;;;5071226;28;20105;-60
2023/06/01 09:04:44;;;;;;;3.22;2.70;;;;;;;;;;5071184;28;20476;-62
2023/06/01 09:07:11;;;;;;;3.85;2.70;;;;;;;;;;5070937;28;20078;-61
2023/06/01 09:09:37;;;;;;;3.83;2.63;;;;;;;;;;5070894;28;20036;-62
2023/06/01 09:12:26;;;;;;;4.25;2.65;;;;;;;;;;5070727;28;20028;-61
2023/06/01 09:15:09;;;;;;;2.90;2.60;;;;;;;;;;5070894;28;20040;-62
2023/06/01 09:17:35;;;;;;;2.85;2.38;;;;;;;;;;5071035;28;20056;-62
2023/06/01 09:20:01;;;;;;;4.10;2.40;;;;;;;;;;5071071;28;20028;-61
2023/06/01 09:22:40;;;;;;;2.75;2.50;;;;;;;;;;5070580;28;20051;-62
2023/06/01 09:25:06;;;;;;;2.97;2.67;;;;;;;;;;5070556;28;20063;-62
2023/06/01 09:27:53;;;;;;;3.15;2.30;;;;;;;;;;5086061;28;20033;-62
2023/06/01 09:30:20;;;;;;;2.50;2.30;;;;;;;;;;5070317;28;20404;-60
2023/06/01 09:32:50;;;;;;;3.72;2.80;;;;;;;;;;5069121;28;20072;-62
2023/06/01 09:35:36;;;;;;;3.20;2.42;;;;;;;;;;5070914;28;20384;-60
2023/06/01 09:38:05;;;;;;;3.08;2.78;;;;;;;;;;5070404;28;20049;-60
2023/06/01 09:40:32;;;;;;;4.15;2.70;;;;;;;;;;5070564;28;20052;-61
2023/06/01 09:42:57;;;;;;;3.42;2.50;;;;;;;;;;5070549;28;20510;-61
2023/06/01 09:45:23;;;;;;;2.95;2.45;;;;;;;;;;5086208;28;20028;-62
2023/06/01 09:47:50;;;;;;;2.83;2.47;;;;;;;;;;5070741;28;20082;-61
2023/06/01 09:50:37;;;;;;;3.45;2.70;;;;;;;;;;5070410;28;20472;-60
2023/06/01 09:53:04;;;;;;;2.78;2.50;;;;;;;;;;5070556;28;20875;-62
2023/06/01 09:55:30;;;;;;;2.88;2.60;;;;;;;;;;5070292;28;20044;-60
2023/06/01 09:58:21;;;;;;;4.25;2.67;;;;;;;;;;5070762;28;20117;-60
2023/06/01 10:00:49;;;;;;;2.80;2.20;;;;;;;;;;5074298;28;20491;-62
2023/06/01 10:03:16;;;;;;;3.45;2.53;;;;;;;;;;5074310;28;20028;-62
2023/06/01 10:05:43;;;;;;;4.57;2.78;;;;;;;;;;5074576;28;20127;-60
2023/06/01 10:08:14;;;;;;;3.35;2.50;;;;;;;;;;5074196;28;20035;-63
2023/06/01 10:10:46;;;;;;;2.70;2.38;;;;;;;;;;5074013;28;20036;-62
2023/06/01 10:13:12;;;;;;;2.95;2.55;;;;;;;;;;5074319;28;20032;-62
2023/06/01 10:15:38;;;;;;;3.63;2.40;;;;;;;;;;5073873;28;20032;-63
2023/06/01 10:18:05;;;;;;;2.40;2.20;;;;;;;;;;5074225;28;20025;-62
2023/06/01 10:20:35;;;;;;;2.53;2.28;;;;;;;;;;5074233;28;20023;-62
2023/06/01 10:23:01;;;;;;;3.92;2.30;;;;;;;;;;5073695;28;20041;-63
2023/06/01 10:25:32;;;;;;;3.33;2.30;;;;;;;;;;5073998;28;20082;-61
2023/06/01 10:28:05;;;;;;;3.70;2.10;;;;;;;;;;5073789;28;20027;-62
2023/06/01 10:30:30;;;;;;;2.75;2.33;;;;;;;;;;5087518;28;20042;-62
2023/06/01 10:32:56;;;;;;;3.13;2.40;;;;;;;;;;5092957;28;20035;-61
2023/06/01 10:35:27;;;;;;;4.72;2.20;;;;;;;;;;5092322;28;20407;-59
2023/06/01 10:38:14;;;;;;;2.53;2.33;;;;;;;;;;5093744;28;20028;-63
2023/06/01 10:40:41;;;;;;;2.50;2.22;;;;;;;;;;5093982;28;20055;-61
2023/06/01 10:43:10;;;;;;;4.13;2.80;;;;;;;;;;5093813;28;20039;-61
2023/06/01 10:45:40;;;;;;;3.88;2.30;;;;;;;;;;5092473;28;20036;-61
2023/06/01 10:48:12;;;;;;;;;;;;;;;;;;5094035;28;20106;-60
2023/06/01 10:50:41;;;;;;;3.17;2.22;;;;;;;;;;5093639;28;19920;-62
2023/06/01 10:53:30;;;;;;;2.50;2.30;;;;;;;;;;5090802;28;20502;-63
2023/06/01 10:56:17;;;;;;;2.22;2.03;;;;;;;;;;5091500;28;20028;-61
2023/06/01 10:58:43;;;;;;;2.47;2.03;;;;;;;;;;5092013;28;20022;-60
2023/06/01 11:01:10;;;;;;;3.60;2.28;;;;;;;;;;5074512;28;20111;-60
2023/06/01 11:03:44;;;;;;;2.70;2.30;;;;;;;;;;5090902;28;20056;-62
2023/06/01 11:06:39;;;;;;;6.32;2.50;;;;;;;;;;5090193;28;20016;-60
2023/06/01 11:09:10;;;;;;;2.47;2.28;;;;;;;;;;5091979;28;20024;-62
2023/06/01 11:11:48;;;;;;;2.65;2.25;;;;;;;;;;5090673;28;20024;-60
2023/06/01 11:14:15;;;;;;;3.30;2.53;;;;;;;;;;5092118;28;20020;-63
2023/06/01 11:16:40;;;;;;;3.15;2.45;;;;;;;;;;5090558;28;20039;-62
2023/06/01 11:19:08;;;;;;;2.33;2.13;;;;;;;;;;5092409;28;20024;-62
2023/06/01 11:21:45;;;;;;;3.00;2.50;;;;;;;;;;5090382;28;20052;-61
2023/06/01 11:24:15;;;;;;;2.42;2.22;;;;;;;;;;5091383;28;20087;-60
2023/06/01 11:26:45;;;;;;;3.03;2.35;;;;;;;;;;5091665;28;20635;-62
2023/06/01 11:29:20;;;;;;;2.22;2.03;;;;;;;;;;5091895;28;20107;-63
2023/06/01 11:31:49;;;;;;;2.70;2.50;;;;;;;;;;5091646;28;20726;-61
2023/06/01 11:34:20;;;;;;;3.10;2.60;;;;;;;;;;5091902;28;20050;-62
2023/06/01 11:36:50;;;;;;;2.55;2.30;;;;;;;;;;5090179;28;20035;-61
2023/06/01 11:39:22;;;;;;;3.80;2.22;;;;;;;;;;5090029;28;20107;-59
2023/06/01 11:41:49;;;;;;;3.20;2.70;;;;;;;;;;5089792;28;20050;-59
2023/06/01 11:44:14;;;;;;;2.20;2.00;;;;;;;;;;5092544;28;20445;-63
2023/06/01 11:46:55;;;;;;;2.08;1.98;;;;;;;;;;5092677;28;20020;-62
2023/06/01 11:49:21;;;;;;;3.45;2.25;;;;;;;;;;5092479;28;20490;-60
2023/06/01 11:51:47;;;;;;;2.95;2.35;;;;;;;;;;5092432;28;20129;-62
2023/06/01 11:54:13;;;;;;;2.35;2.15;;;;;;;;;;5092383;28;20020;-63
2023/06/01 11:56:39;;;;;;;2.45;2.25;;;;;;;;;;5092422;28;20024;-63
2023/06/01 11:59:08;;;;;;;2.28;2.13;;;;;;;;;;5092251;28;20073;-60
2023/06/01 12:01:43;;;;;;;5.78;2.30;;;;;;;;;;5092147;28;20020;-60
2023/06/01 12:04:25;;;;;;;2.53;2.25;;;;;;;;;;5092193;28;20487;-60
2023/06/01 12:06:51;;;;;;;2.67;2.47;;;;;;;;;;5092224;28;20546;-62
2023/06/01 12:09:17;;;;;;;2.58;2.22;;;;;;;;;;5092358;28;20384;-62
2023/06/01 12:11:44;;;;;;;2.55;2.30;;;;;;;;;;5091976;28;20032;-62
2023/06/01 12:14:12;;;;;;;2.63;2.10;;;;;;;;;;5107648;28;20442;-59
2023/06/01 12:16:56;;;;;;;2.63;2.42;;;;;;;;;;5091901;28;20024;-62
2023/06/01 12:19:22;;;;;;;2.30;2.10;;;;;;;;;;5080706;28;20032;-60
2023/06/01 12:21:54;;;;;;;2.38;2.17;;;;;;;;;;5071040;28;20491;-61
2023/06/01 12:24:30;;;;;;;2.47;2.28;;;;;;;;;;5071542;28;20035;-60
2023/06/01 12:26:58;;;;;;;2.17;1.98;;;;;;;;;;5071741;28;20025;-63
2023/06/01 12:29:41;;;;;;;2.83;2.10;;;;;;;;;;5071351;28;20028;-62
2023/06/01 12:32:07;;;;;;;2.35;2.10;;;;;;;;;;5082665;28;20040;-62
2023/06/01 12:34:34;;;;;;;2.25;2.05;;;;;;;;;;5091655;28;20032;-64
2023/06/01 12:37:17;;;;;;;3.00;2.30;;;;;;;;;;5091871;28;20027;-63
2023/06/01 12:39:43;;;;;;;3.67;2.20;;;;;;;;;;5091424;28;20047;-59
2023/06/01 12:42:11;;;;;;;2.50;2.30;;;;;;;;;;5091336;28;20655;-61
2023/06/01 12:44:37;;;;;;;2.40;2.20;;;;;;;;;;5091639;28;20031;-62
2023/06/01 12:47:03;;;;;;;2.53;2.30;;;;;;;;;;5091444;28;20027;-59
2023/06/01 12:49:29;;;;;;;2.80;2.28;;;;;;;;;;5091354;28;20027;-63
2023/06/01 12:51:55;;;;;;;2.25;2.10;;;;;;;;;;5089883;28;20024;-61
2023/06/01 12:54:21;;;;;;;2.38;2.13;;;;;;;;;;5091582;28;20105;-63
2023/06/01 12:56:50;;;;;;;2.35;2.15;;;;;;;;;;5091555;28;20028;-62
2023/06/01 12:59:16;;;;;;;2.40;2.20;;;;;;;;;;5091320;28;20471;-62
2023/06/01 13:01:43;;;;;;;2.65;2.22;;;;;;;;;;5091068;28;20042;-62
2023/06/01 13:04:09;;;;;;;2.03;1.92;;;;;;;;;;5089647;28;20491;-60
2023/06/01 13:06:34;;;;;;;3.13;2.08;;;;;;;;;;5091454;28;20047;-62
2023/06/01 13:09:02;;;;;;;2.45;2.25;;;;;;;;;;5091346;28;20129;-60
2023/06/01 13:11:28;;;;;;;2.95;2.33;;;;;;;;;;5090967;28;20047;-62
2023/06/01 13:13:53;;;;;;;3.47;2.58;;;;;;;;;;5090946;28;20075;-62
2023/06/01 13:16:20;;;;;;;2.28;2.08;;;;;;;;;;5091039;28;20020;-59
2023/06/01 13:18:48;;;;;;;2.38;2.17;;;;;;;;;;5091328;28;20036;-63
2023/06/01 13:21:14;;;;;;;2.70;2.15;;;;;;;;;;5090789;28;20020;-60
2023/06/01 13:23:41;;;;;;;2.28;1.95;;;;;;;;;;5091150;28;20108;-63
2023/06/01 13:26:07;;;;;;;2.63;2.13;;;;;;;;;;5091225;28;20520;-63
2023/06/01 13:28:33;;;;;;;2.72;1.95;;;;;;;;;;5090750;28;20074;-61
2023/06/01 13:30:59;;;;;;;2.40;2.20;;;;;;;;;;5091158;28;20112;-60
2023/06/01 13:33:25;;;;;;;3.70;2.50;;;;;;;;;;5091573;28;20102;-60
2023/06/01 13:35:51;;;;;;;2.30;2.10;;;;;;;;;;5095295;28;20024;-60
2023/06/01 13:38:16;;;;;;;2.55;2.35;;;;;;;;;;5094593;28;20084;-61
2023/06/01 13:40:42;;;;;;;2.20;2.00;;;;;;;;;;5094130;28;20388;-61
2023/06/01 13:43:08;;;;;;;2.38;2.17;;;;;;;;;;5094721;28;20074;-60
2023/06/01 13:45:34;;;;;;;3.70;2.40;;;;;;;;;;5095044;28;20048;-61
2023/06/01 13:48:00;;;;;;;2.30;2.10;;;;;;;;;;5095013;28;20051;-62
2023/06/01 13:50:26;;;;;;;3.28;2.33;;;;;;;;;;5094903;28;20471;-60
2023/06/01 13:52:53;;;;;;;3.65;2.03;;;;;;;;;;5094570;28;20043;-62
2023/06/01 13:55:19;;;;;;;2.60;2.15;;;;;;;;;;5094997;28;20039;-61
2023/06/01 13:57:45;;;;;;;2.85;2.20;;;;;;;;;;5094751;28;20069;-60
2023/06/01 14:00:13;;;;;;;2.80;2.20;;;;;;;;;;5094789;28;20098;-61
2023/06/01 14:02:39;;;;;;;3.85;2.35;;;;;;;;;;5094562;28;20775;-63
2023/06/01 14:05:05;;;;;;;2.85;2.25;;;;;;;;;;5094533;28;20024;-63
2023/06/01 14:07:31;;;;;;;2.58;2.20;;;;;;;;;;5094666;28;20690;-63
2023/06/01 14:09:57;;;;;;;2.30;2.10;;;;;;;;;;5094465;28;20106;-61
2023/06/01 14:12:23;;;;;;;3.13;1.90;;;;;;;;;;5094526;28;20107;-63
2023/06/01 14:14:48;;;;;;;2.28;2.08;;;;;;;;;;5094633;28;20111;-60
2023/06/01 14:17:14;;;;;;;3.05;2.45;;;;;;;;;;5094634;28;20498;-60
2023/06/01 14:19:39;;;;;;;2.30;2.10;;;;;;;;;;5094653;28;20024;-60
2023/06/01 14:22:05;;;;;;;2.10;2.00;;;;;;;;;;5094107;28;20024;-63
2023/06/01 14:24:31;;;;;;;2.30;2.10;;;;;;;;;;5083556;28;20020;-61
2023/06/01 14:26:56;;;;;;;2.25;2.05;;;;;;;;;;5073815;28;20028;-61
2023/06/01 14:29:25;;;;;;;2.38;2.17;;;;;;;;;;5074182;28;20028;-63
2023/06/01 14:31:51;;;;;;;2.58;2.38;;;;;;;;;;5089418;28;20517;-62
2023/06/01 14:34:16;;;;;;;2.50;2.25;;;;;;;;;;5092761;28;20032;-63
2023/06/01 14:36:42;;;;;;;2.40;2.20;;;;;;;;;;5089618;28;20036;-59
2023/06/01 14:39:07;;;;;;;2.15;1.95;;;;;;;;;;5089691;28;20086;-59
2023/06/01 14:41:33;;;;;;;2.78;2.30;;;;;;;;;;5088000;28;20048;-59
2023/06/01 14:43:58;;;;;;;2.33;2.13;;;;;;;;;;5088860;28;20032;-59
2023/06/01 14:46:24;;;;;;;2.17;1.90;;;;;;;;;;5088708;28;20067;-59
2023/06/01 14:48:49;;;;;;;2.97;2.25;;;;;;;;;;5092489;28;20016;-59